Time,TemperatureF,DewpointF,PressureIn,WindDirection,WindDirectionDegrees,WindSpeedMPH,WindSpeedGustMPH,Humidity,HourlyPrecipIn,Conditions,Clouds,dailyrainin,SoftwareType,DateUTC
2013-02-08 00:01:00,31.6,24.6,30.35,NE,50,1.0,1.0,75,0.00,,,0.00,Wunderground v.1.15,2013-02-08 05:01:00,
2013-02-08 00:06:00,31.7,24.7,30.35,East,85,1.0,1.0,75,0.00,,,0.00,Wunderground v.1.15,2013-02-08 05:06:00,
2013-02-08 00:10:00,31.9,25.2,30.35,SE,146,0.0,1.0,76,0.00,,,0.00,Wunderground v.1.15,2013-02-08 05:10:00,
2013-02-08 00:16:00,32.0,25.3,30.35,NNE,15,1.0,2.0,76,0.00,,,0.00,Wunderground v.1.15,2013-02-08 05:16:00,
2013-02-08 00:17:00,32.0,25.3,30.34,NNE,15,1.0,2.0,76,0.00,,,0.00,Wunderground v.1.15,2013-02-08 05:17:00,
2013-02-08 00:25:00,32.2,25.5,30.34,ENE,64,3.0,3.0,76,0.00,,,0.00,Wunderground v.1.15,2013-02-08 05:25:00,
2013-02-08 00:30:00,32.3,25.6,30.34,NE,38,1.0,2.0,76,0.00,,,0.00,Wunderground v.1.15,2013-02-08 05:30:00,
2013-02-08 00:37:00,32.5,26.1,30.33,NE,53,4.0,4.0,77,0.00,,,0.00,Wunderground v.1.15,2013-02-08 05:37:00,
2013-02-08 00:46:00,32.7,26.0,30.33,ESE,110,0.0,7.0,76,0.00,,,0.00,Wunderground v.1.15,2013-02-08 05:46:00,
2013-02-08 00:52:00,32.8,26.1,30.33,NNE,27,2.0,2.0,76,0.00,,,0.00,Wunderground v.1.15,2013-02-08 05:52:00,
2013-02-08 01:00:00,32.9,26.2,30.32,SE,126,1.0,2.0,76,0.00,,,0.00,Wunderground v.1.15,2013-02-08 06:00:00,
2013-02-08 01:06:00,32.9,26.2,30.32,ESE,115,0.0,5.0,76,0.00,,,0.00,Wunderground v.1.15,2013-02-08 06:06:00,
2013-02-08 01:12:00,33.0,26.3,30.32,NNE,17,1.0,2.0,76,0.00,,,0.00,Wunderground v.1.15,2013-02-08 06:12:00,
2013-02-08 01:21:00,33.0,26.3,30.32,East,89,2.0,2.0,76,0.00,,,0.00,Wunderground v.1.15,2013-02-08 06:21:00,
2013-02-08 01:26:00,32.9,26.2,30.32,ENE,57,1.0,3.0,76,0.00,,,0.00,Wunderground v.1.15,2013-02-08 06:26:00,
2013-02-08 01:32:00,32.9,26.2,30.31,SE,125,2.0,3.0,76,0.00,,,0.00,Wunderground v.1.15,2013-02-08 06:32:00,
2013-02-08 01:41:00,32.9,26.2,30.31,SSE,164,2.0,2.0,76,0.00,,,0.00,Wunderground v.1.15,2013-02-08 06:41:00,
2013-02-08 01:46:00,32.9,26.2,30.31,NNE,17,1.0,2.0,76,0.00,,,0.00,Wunderground v.1.15,2013-02-08 06:46:00,
2013-02-08 01:52:00,32.9,26.2,30.31,East,84,2.0,9.0,76,0.00,,,0.00,Wunderground v.1.15,2013-02-08 06:52:00,
2013-02-08 02:00:00,32.8,26.1,30.30,NNE,26,1.0,3.0,76,0.00,,,0.00,Wunderground v.1.15,2013-02-08 07:00:00,
2013-02-08 02:06:00,32.8,26.1,30.29,North,360,7.0,7.0,76,0.00,,,0.00,Wunderground v.1.15,2013-02-08 07:06:00,
2013-02-08 02:11:00,32.7,26.0,30.29,NE,36,1.0,6.0,76,0.00,,,0.00,Wunderground v.1.15,2013-02-08 07:11:00,
2013-02-08 02:16:00,32.6,25.9,30.29,NE,38,2.0,6.0,76,0.00,,,0.00,Wunderground v.1.15,2013-02-08 07:16:00,
2013-02-08 02:21:00,32.6,25.9,30.29,ENE,63,2.0,3.0,76,0.00,,,0.00,Wunderground v.1.15,2013-02-08 07:21:00,
2013-02-08 02:26:00,32.5,26.1,30.28,ESE,105,2.0,3.0,77,0.00,,,0.00,Wunderground v.1.15,2013-02-08 07:26:00,
2013-02-08 02:31:00,32.4,26.0,30.28,ESE,119,2.0,4.0,77,0.00,,,0.00,Wunderground v.1.15,2013-02-08 07:31:00,
2013-02-08 02:36:00,32.4,26.0,30.28,ESE,114,3.0,6.0,77,0.00,,,0.00,Wunderground v.1.15,2013-02-08 07:36:00,
2013-02-08 02:41:00,32.4,26.0,30.27,North,356,4.0,4.0,77,0.00,,,0.00,Wunderground v.1.15,2013-02-08 07:41:00,
2013-02-08 02:46:00,32.4,25.7,30.27,East,82,3.0,12.0,76,0.00,,,0.00,Wunderground v.1.15,2013-02-08 07:46:00,
2013-02-08 02:51:00,32.4,25.7,30.27,NE,44,1.0,4.0,76,0.00,,,0.00,Wunderground v.1.15,2013-02-08 07:51:00,
2013-02-08 02:56:00,32.3,25.6,30.26,NNE,32,4.0,5.0,76,0.00,,,0.00,Wunderground v.1.15,2013-02-08 07:56:00,
2013-02-08 03:01:00,32.3,25.9,30.27,NNE,13,5.0,5.0,77,0.00,,,0.00,Wunderground v.1.15,2013-02-08 08:01:00,
2013-02-08 03:06:00,32.3,25.9,30.26,NE,50,2.0,9.0,77,0.00,,,0.00,Wunderground v.1.15,2013-02-08 08:06:00,
2013-02-08 03:11:00,32.2,25.8,30.26,East,92,1.0,4.0,77,0.00,,,0.00,Wunderground v.1.15,2013-02-08 08:11:00,
2013-02-08 03:16:00,32.2,25.8,30.26,NNE,15,0.0,12.0,77,0.00,,,0.00,Wunderground v.1.15,2013-02-08 08:16:00,
2013-02-08 03:21:00,32.1,25.7,30.25,ESE,102,0.0,2.0,77,0.00,,,0.00,Wunderground v.1.15,2013-02-08 08:21:00,
2013-02-08 03:26:00,32.1,25.7,30.25,NNW,337,5.0,6.0,77,0.00,,,0.00,Wunderground v.1.15,2013-02-08 08:26:00,
2013-02-08 03:31:00,32.1,25.7,30.25,NNE,22,2.0,3.0,77,0.00,,,0.00,Wunderground v.1.15,2013-02-08 08:31:00,
2013-02-08 03:36:00,32.0,25.9,30.25,NE,56,4.0,11.0,78,0.00,,,0.00,Wunderground v.1.15,2013-02-08 08:36:00,
2013-02-08 03:41:00,32.0,25.9,30.24,NE,52,3.0,3.0,78,0.00,,,0.00,Wunderground v.1.15,2013-02-08 08:41:00,
2013-02-08 03:46:00,32.1,26.0,30.24,North,355,7.0,7.0,78,0.00,,,0.00,Wunderground v.1.15,2013-02-08 08:46:00,
2013-02-08 03:51:00,32.1,26.0,30.24,NNE,31,5.0,6.0,78,0.00,,,0.00,Wunderground v.1.15,2013-02-08 08:51:00,
2013-02-08 03:56:00,32.1,26.0,30.23,NNE,15,3.0,6.0,78,0.00,,,0.00,Wunderground v.1.15,2013-02-08 08:56:00,
2013-02-08 04:01:00,32.1,26.0,30.23,NE,51,4.0,9.0,78,0.00,,,0.00,Wunderground v.1.15,2013-02-08 09:01:00,
2013-02-08 04:06:00,32.1,26.3,30.23,NNE,13,0.0,9.0,79,0.00,,,0.00,Wunderground v.1.15,2013-02-08 09:06:00,
2013-02-08 04:11:00,32.2,26.4,30.23,ENE,71,2.0,5.0,79,0.00,,,0.00,Wunderground v.1.15,2013-02-08 09:11:00,
2013-02-08 04:16:00,32.2,26.4,30.23,ENE,77,0.0,8.0,79,0.00,,,0.00,Wunderground v.1.15,2013-02-08 09:16:00,
2013-02-08 04:21:00,32.3,26.8,30.23,ENE,77,4.0,11.0,80,0.00,,,0.00,Wunderground v.1.15,2013-02-08 09:21:00,
2013-02-08 04:26:00,32.4,26.9,30.22,East,99,3.0,11.0,80,0.00,,,0.00,Wunderground v.1.15,2013-02-08 09:26:00,
2013-02-08 04:31:00,32.5,27.3,30.22,East,82,2.0,7.0,81,0.00,,,0.00,Wunderground v.1.15,2013-02-08 09:31:00,
2013-02-08 04:36:00,32.6,27.4,30.22,NE,48,3.0,8.0,81,0.00,,,0.00,Wunderground v.1.15,2013-02-08 09:36:00,
2013-02-08 04:42:00,32.6,27.4,30.22,ENE,75,4.0,4.0,81,0.00,,,0.00,Wunderground v.1.15,2013-02-08 09:42:00,
2013-02-08 04:47:00,32.8,27.9,30.22,ENE,60,3.0,11.0,82,0.00,,,0.00,Wunderground v.1.15,2013-02-08 09:47:00,
2013-02-08 04:52:00,32.9,28.0,30.21,ENE,65,2.0,3.0,82,0.00,,,0.00,Wunderground v.1.15,2013-02-08 09:52:00,
2013-02-08 04:57:00,32.9,28.0,30.21,NE,41,4.0,10.0,82,0.00,,,0.00,Wunderground v.1.15,2013-02-08 09:57:00,
2013-02-08 05:02:00,32.8,27.9,30.21,ESE,120,4.0,7.0,82,0.00,,,0.00,Wunderground v.1.15,2013-02-08 10:02:00,
2013-02-08 05:07:00,32.5,27.6,30.21,NNE,27,3.0,7.0,82,0.00,,,0.00,Wunderground v.1.15,2013-02-08 10:07:00,
2013-02-08 05:12:00,32.2,27.3,30.21,NE,49,1.0,9.0,82,0.00,,,0.00,Wunderground v.1.15,2013-02-08 10:12:00,
2013-02-08 05:17:00,32.1,27.2,30.21,North,360,7.0,9.0,82,0.00,,,0.00,Wunderground v.1.15,2013-02-08 10:17:00,
2013-02-08 05:22:00,31.9,27.0,30.20,ESE,119,0.0,3.0,82,0.00,,,0.00,Wunderground v.1.15,2013-02-08 10:22:00,
2013-02-08 05:27:00,31.8,27.2,30.20,NE,47,3.0,7.0,83,0.00,,,0.00,Wunderground v.1.15,2013-02-08 10:27:00,
2013-02-08 05:32:00,31.7,27.1,30.20,NNE,24,3.0,7.0,83,0.00,,,0.00,Wunderground v.1.15,2013-02-08 10:32:00,
2013-02-08 05:37:00,31.6,27.0,30.20,ENE,62,3.0,7.0,83,0.00,,,0.00,Wunderground v.1.15,2013-02-08 10:37:00,
2013-02-08 05:42:00,31.6,27.0,30.20,North,3,3.0,5.0,83,0.00,,,0.00,Wunderground v.1.15,2013-02-08 10:42:00,
2013-02-08 05:47:00,31.6,27.3,30.19,NNE,14,5.0,11.0,84,0.00,,,0.00,Wunderground v.1.15,2013-02-08 10:47:00,
2013-02-08 05:52:00,31.6,27.3,30.19,NE,52,4.0,7.0,84,0.00,,,0.00,Wunderground v.1.15,2013-02-08 10:52:00,
2013-02-08 06:00:00,31.6,27.3,30.19,ENE,71,2.0,3.0,84,0.00,,,0.00,Wunderground v.1.15,2013-02-08 11:00:00,
2013-02-08 06:05:00,31.7,27.4,30.19,ENE,65,3.0,3.0,84,0.00,,,0.00,Wunderground v.1.15,2013-02-08 11:05:00,
2013-02-08 06:11:00,31.7,27.4,30.18,East,80,1.0,2.0,84,0.00,,,0.00,Wunderground v.1.15,2013-02-08 11:11:00,
2013-02-08 06:16:00,31.6,27.3,30.18,ENE,69,0.0,3.0,84,0.00,,,0.00,Wunderground v.1.15,2013-02-08 11:16:00,
2013-02-08 06:21:00,31.7,27.7,30.17,NE,36,1.0,2.0,85,0.00,,,0.00,Wunderground v.1.15,2013-02-08 11:21:00,
2013-02-08 06:26:00,31.7,27.7,30.17,NE,40,3.0,6.0,85,0.00,,,0.00,Wunderground v.1.15,2013-02-08 11:26:00,
2013-02-08 06:31:00,31.7,27.7,30.17,SSW,209,2.0,2.0,85,0.00,,,0.00,Wunderground v.1.15,2013-02-08 11:31:00,
2013-02-08 06:36:00,31.7,27.7,30.16,North,4,3.0,4.0,85,0.00,,,0.00,Wunderground v.1.15,2013-02-08 11:36:00,
2013-02-08 06:42:00,31.7,28.0,30.16,NNE,14,1.0,2.0,86,0.00,,,0.00,Wunderground v.1.15,2013-02-08 11:42:00,
2013-02-08 06:47:00,31.7,28.3,30.16,NNE,27,1.0,13.0,87,0.00,,,0.00,Wunderground v.1.15,2013-02-08 11:47:00,
2013-02-08 06:52:00,31.7,28.3,30.16,East,90,4.0,4.0,87,0.00,,,0.00,Wunderground v.1.15,2013-02-08 11:52:00,
2013-02-08 06:57:00,31.7,28.6,30.16,East,79,0.0,5.0,88,0.00,,,0.00,Wunderground v.1.15,2013-02-08 11:57:00,
2013-02-08 07:02:00,31.7,28.8,30.15,NNE,30,2.0,5.0,89,0.00,,,0.00,Wunderground v.1.15,2013-02-08 12:02:00,
2013-02-08 07:07:00,31.7,28.8,30.15,NE,42,1.0,5.0,89,0.00,,,0.00,Wunderground v.1.15,2013-02-08 12:07:00,
2013-02-08 07:12:00,31.7,28.8,30.15,ENE,69,2.0,4.0,89,0.00,,,0.00,Wunderground v.1.15,2013-02-08 12:12:00,
2013-02-08 07:17:00,31.7,29.1,30.15,East,100,2.0,5.0,90,0.00,,,0.00,Wunderground v.1.15,2013-02-08 12:17:00,
2013-02-08 07:22:00,31.7,29.1,30.15,NNE,27,0.0,8.0,90,0.00,,,0.00,Wunderground v.1.15,2013-02-08 12:22:00,
2013-02-08 07:27:00,31.8,29.5,30.15,NE,35,1.0,8.0,91,0.00,,,0.00,Wunderground v.1.15,2013-02-08 12:27:00,
2013-02-08 07:32:00,31.8,29.5,30.15,NNE,22,3.0,4.0,91,0.00,,,0.00,Wunderground v.1.15,2013-02-08 12:32:00,
2013-02-08 07:37:00,31.7,29.6,30.15,NNE,27,2.0,8.0,92,0.00,,,0.00,Wunderground v.1.15,2013-02-08 12:37:00,
2013-02-08 07:42:00,31.7,29.6,30.15,ENE,64,1.0,3.0,92,0.00,,,0.00,Wunderground v.1.15,2013-02-08 12:42:00,
2013-02-08 07:47:00,31.8,30.0,30.14,NE,48,0.0,6.0,93,0.00,,,0.00,Wunderground v.1.15,2013-02-08 12:47:00,
2013-02-08 07:52:00,31.8,30.0,30.14,NE,45,0.0,2.0,93,0.00,,,0.00,Wunderground v.1.15,2013-02-08 12:52:00,
2013-02-08 07:57:00,31.8,30.3,30.14,NNE,29,3.0,4.0,94,0.00,,,0.00,Wunderground v.1.15,2013-02-08 12:57:00,
2013-02-08 08:02:00,31.9,30.4,30.14,NNE,19,3.0,3.0,94,0.00,,,0.00,Wunderground v.1.15,2013-02-08 13:02:00,
2013-02-08 08:07:00,32.0,30.5,30.13,North,3,2.0,4.0,94,0.00,,,0.00,Wunderground v.1.15,2013-02-08 13:07:00,
2013-02-08 08:12:00,32.1,30.6,30.13,NE,36,11.0,11.0,94,0.00,,,0.00,Wunderground v.1.15,2013-02-08 13:12:00,
2013-02-08 08:17:00,32.2,30.7,30.13,NNE,24,1.0,11.0,94,0.00,,,0.00,Wunderground v.1.15,2013-02-08 13:17:00,
2013-02-08 08:22:00,32.3,30.8,30.13,NE,52,2.0,2.0,94,0.00,,,0.00,Wunderground v.1.15,2013-02-08 13:22:00,
2013-02-08 08:27:00,32.4,31.1,30.12,NNE,19,5.0,6.0,95,0.00,,,0.00,Wunderground v.1.15,2013-02-08 13:27:00,
2013-02-08 08:32:00,32.5,31.2,30.12,NNE,21,1.0,7.0,95,0.00,,,0.00,Wunderground v.1.15,2013-02-08 13:32:00,
2013-02-08 08:37:00,32.7,31.4,30.12,NNE,19,1.0,7.0,95,0.00,,,0.00,Wunderground v.1.15,2013-02-08 13:37:00,
2013-02-08 08:42:00,32.7,31.4,30.11,NE,49,5.0,8.0,95,0.00,,,0.00,Wunderground v.1.15,2013-02-08 13:42:00,
2013-02-08 08:47:00,32.9,31.6,30.11,NNE,13,2.0,8.0,95,0.00,,,0.00,Wunderground v.1.15,2013-02-08 13:47:00,
2013-02-08 08:52:00,32.9,31.6,30.10,East,100,3.0,5.0,95,0.00,,,0.00,Wunderground v.1.15,2013-02-08 13:52:00,
2013-02-08 08:57:00,33.0,31.7,30.10,NE,52,3.0,5.0,95,0.00,,,0.00,Wunderground v.1.15,2013-02-08 13:57:00,
2013-02-08 09:02:00,33.1,31.8,30.10,NE,52,2.0,6.0,95,0.00,,,0.00,Wunderground v.1.15,2013-02-08 14:02:00,
2013-02-08 09:07:00,33.2,31.9,30.09,East,80,4.0,8.0,95,0.00,,,0.00,Wunderground v.1.15,2013-02-08 14:07:00,
2013-02-08 09:12:00,33.4,32.1,30.09,NNE,27,3.0,11.0,95,0.00,,,0.00,Wunderground v.1.15,2013-02-08 14:12:00,
2013-02-08 09:17:00,33.5,32.0,30.09,North,5,5.0,11.0,94,0.00,,,0.00,Wunderground v.1.15,2013-02-08 14:17:00,
2013-02-08 09:22:00,33.5,32.0,30.08,NE,41,5.0,11.0,94,0.00,,,0.00,Wunderground v.1.15,2013-02-08 14:22:00,
2013-02-08 09:27:00,33.5,32.0,30.08,ENE,73,2.0,14.0,94,0.00,,,0.00,Wunderground v.1.15,2013-02-08 14:27:00,
2013-02-08 09:32:00,33.5,32.0,30.07,SSE,150,3.0,7.0,94,0.00,,,0.00,Wunderground v.1.15,2013-02-08 14:32:00,
2013-02-08 09:37:00,33.6,32.1,30.07,NNE,26,1.0,17.0,94,0.00,,,0.00,Wunderground v.1.15,2013-02-08 14:37:00,
2013-02-08 09:42:00,33.5,32.0,30.07,North,3,1.0,19.0,94,0.00,,,0.00,Wunderground v.1.15,2013-02-08 14:42:00,
2013-02-08 09:47:00,33.5,32.0,30.06,ESE,111,2.0,19.0,94,0.00,,,0.00,Wunderground v.1.15,2013-02-08 14:47:00,
2013-02-08 09:52:00,33.5,32.0,30.06,East,85,6.0,8.0,94,0.00,,,0.00,Wunderground v.1.15,2013-02-08 14:52:00,
2013-02-08 09:57:00,33.5,32.0,30.06,NNE,17,1.0,8.0,94,0.00,,,0.00,Wunderground v.1.15,2013-02-08 14:57:00,
2013-02-08 10:05:00,33.5,32.0,30.05,North,352,8.0,8.0,94,0.00,,,0.00,Wunderground v.1.15,2013-02-08 15:05:00,
2013-02-08 10:10:00,33.4,31.9,30.04,ESE,118,2.0,4.0,94,0.00,,,0.00,Wunderground v.1.15,2013-02-08 15:10:00,
2013-02-08 10:16:00,33.4,31.9,30.04,ENE,65,7.0,10.0,94,0.00,,,0.01,Wunderground v.1.15,2013-02-08 15:16:00,
2013-02-08 10:21:00,33.4,31.9,30.04,North,352,7.0,7.0,94,0.00,,,0.01,Wunderground v.1.15,2013-02-08 15:21:00,
2013-02-08 10:26:00,33.4,31.9,30.03,North,7,3.0,12.0,94,0.00,,,0.01,Wunderground v.1.15,2013-02-08 15:26:00,
2013-02-08 10:31:00,33.3,31.8,30.03,NE,50,2.0,10.0,94,0.00,,,0.01,Wunderground v.1.15,2013-02-08 15:31:00,
2013-02-08 10:36:00,33.3,31.8,30.02,NNE,31,4.0,10.0,94,0.00,,,0.01,Wunderground v.1.15,2013-02-08 15:36:00,
2013-02-08 10:41:00,33.2,31.7,30.02,NNE,15,3.0,8.0,94,0.00,,,0.01,Wunderground v.1.15,2013-02-08 15:41:00,
2013-02-08 10:46:00,33.2,31.7,30.02,NE,54,3.0,8.0,94,0.00,,,0.01,Wunderground v.1.15,2013-02-08 15:46:00,
2013-02-08 10:51:00,33.2,31.7,30.01,ENE,58,5.0,5.0,94,0.00,,,0.01,Wunderground v.1.15,2013-02-08 15:51:00,
2013-02-08 10:56:00,33.2,31.7,30.01,ENE,57,4.0,5.0,94,0.00,,,0.01,Wunderground v.1.15,2013-02-08 15:56:00,
2013-02-08 11:01:00,33.2,31.7,30.01,North,354,2.0,5.0,94,0.00,,,0.02,Wunderground v.1.15,2013-02-08 16:01:00,
2013-02-08 11:06:00,33.2,31.7,30.01,North,10,3.0,15.0,94,0.00,,,0.02,Wunderground v.1.15,2013-02-08 16:06:00,
2013-02-08 11:11:00,33.2,31.7,30.00,SW,235,13.0,13.0,94,0.00,,,0.02,Wunderground v.1.15,2013-02-08 16:11:00,
2013-02-08 11:16:00,33.2,31.7,29.99,NE,52,4.0,13.0,94,0.00,,,0.02,Wunderground v.1.15,2013-02-08 16:16:00,
2013-02-08 11:21:00,33.2,31.7,29.99,ESE,109,0.0,3.0,94,0.00,,,0.02,Wunderground v.1.15,2013-02-08 16:21:00,
2013-02-08 11:26:00,33.2,31.7,29.98,North,10,5.0,17.0,94,0.00,,,0.02,Wunderground v.1.15,2013-02-08 16:26:00,
2013-02-08 11:31:00,33.1,31.6,29.98,NE,48,4.0,10.0,94,0.00,,,0.02,Wunderground v.1.15,2013-02-08 16:31:00,
2013-02-08 11:36:00,33.1,31.6,29.97,East,96,7.0,10.0,94,0.00,,,0.03,Wunderground v.1.15,2013-02-08 16:36:00,
2013-02-08 11:41:00,33.1,31.3,29.97,NE,52,5.0,8.0,93,0.00,,,0.03,Wunderground v.1.15,2013-02-08 16:41:00,
2013-02-08 11:46:00,33.1,31.3,29.97,NNE,27,3.0,8.0,93,0.00,,,0.03,Wunderground v.1.15,2013-02-08 16:46:00,
2013-02-08 11:51:00,33.1,31.3,29.96,NE,46,2.0,5.0,93,0.00,,,0.03,Wunderground v.1.15,2013-02-08 16:51:00,
2013-02-08 11:56:00,33.1,31.3,29.95,ESE,107,5.0,8.0,93,0.00,,,0.03,Wunderground v.1.15,2013-02-08 16:56:00,
2013-02-08 12:02:00,33.1,31.3,29.95,NNE,21,8.0,17.0,93,0.00,,,0.03,Wunderground v.1.15,2013-02-08 17:02:00,
2013-02-08 12:06:00,33.1,31.3,29.95,North,350,7.0,17.0,93,0.00,,,0.03,Wunderground v.1.15,2013-02-08 17:06:00,
2013-02-08 12:12:00,33.0,31.2,29.94,NNW,331,3.0,9.0,93,0.00,,,0.03,Wunderground v.1.15,2013-02-08 17:12:00,
2013-02-08 12:17:00,33.0,31.2,29.93,North,359,4.0,9.0,93,0.00,,,0.03,Wunderground v.1.15,2013-02-08 17:17:00,
2013-02-08 12:22:00,32.9,31.1,29.93,East,88,1.0,4.0,93,0.00,,,0.03,Wunderground v.1.15,2013-02-08 17:22:00,
2013-02-08 12:27:00,32.9,31.1,29.92,East,79,4.0,11.0,93,0.00,,,0.03,Wunderground v.1.15,2013-02-08 17:27:00,
2013-02-08 12:32:00,32.9,31.1,29.92,ENE,75,4.0,5.0,93,0.00,,,0.04,Wunderground v.1.15,2013-02-08 17:32:00,
2013-02-08 12:37:00,32.9,31.1,29.92,NE,50,4.0,5.0,93,0.00,,,0.04,Wunderground v.1.15,2013-02-08 17:37:00,
2013-02-08 12:42:00,32.8,31.0,29.91,ENE,73,1.0,6.0,93,0.00,,,0.04,Wunderground v.1.15,2013-02-08 17:42:00,
2013-02-08 12:47:00,32.9,31.1,29.90,North,354,2.0,8.0,93,0.00,,,0.04,Wunderground v.1.15,2013-02-08 17:47:00,
2013-02-08 12:52:00,32.9,31.1,29.89,NNE,30,5.0,5.0,93,0.00,,,0.04,Wunderground v.1.15,2013-02-08 17:52:00,
2013-02-08 12:57:00,32.9,31.1,29.89,NE,36,2.0,10.0,93,0.00,,,0.04,Wunderground v.1.15,2013-02-08 17:57:00,
2013-02-08 13:02:00,32.9,31.1,29.88,North,358,2.0,4.0,93,0.00,,,0.04,Wunderground v.1.15,2013-02-08 18:02:00,
2013-02-08 13:07:00,32.8,31.0,29.88,East,94,6.0,9.0,93,0.00,,,0.04,Wunderground v.1.15,2013-02-08 18:07:00,
2013-02-08 13:12:00,32.8,31.0,29.87,NNE,17,3.0,7.0,93,0.00,,,0.04,Wunderground v.1.15,2013-02-08 18:12:00,
2013-02-08 13:18:00,32.8,31.0,29.86,North,2,7.0,10.0,93,0.00,,,0.04,Wunderground v.1.15,2013-02-08 18:18:00,
2013-02-08 13:23:00,32.8,31.0,29.86,North,359,5.0,11.0,93,0.00,,,0.05,Wunderground v.1.15,2013-02-08 18:23:00,
2013-02-08 13:28:00,32.8,31.0,29.86,North,350,1.0,11.0,93,0.00,,,0.05,Wunderground v.1.15,2013-02-08 18:28:00,
2013-02-08 13:34:00,32.8,31.3,29.85,North,360,5.0,6.0,94,0.00,,,0.05,Wunderground v.1.15,2013-02-08 18:34:00,
2013-02-08 13:41:00,32.8,31.3,29.85,NNE,15,1.0,3.0,94,0.00,,,0.05,Wunderground v.1.15,2013-02-08 18:41:00,
2013-02-08 13:46:00,32.8,31.3,29.84,NNE,17,3.0,8.0,94,0.00,,,0.05,Wunderground v.1.15,2013-02-08 18:46:00,
2013-02-08 13:51:00,32.8,31.3,29.83,ENE,74,7.0,7.0,94,0.00,,,0.05,Wunderground v.1.15,2013-02-08 18:51:00,
2013-02-08 13:57:00,32.8,31.3,29.83,NE,40,2.0,9.0,94,0.00,,,0.05,Wunderground v.1.15,2013-02-08 18:57:00,
2013-02-08 14:01:00,32.7,31.2,29.83,North,9,5.0,5.0,94,0.00,,,0.05,Wunderground v.1.15,2013-02-08 19:01:00,
2013-02-08 14:07:00,32.7,31.4,29.82,NNE,21,1.0,5.0,95,0.00,,,0.05,Wunderground v.1.15,2013-02-08 19:07:00,
2013-02-08 14:12:00,32.7,31.4,29.82,NE,50,1.0,3.0,95,0.00,,,0.05,Wunderground v.1.15,2013-02-08 19:12:00,
2013-02-08 14:17:00,32.6,31.3,29.81,NNE,26,5.0,7.0,95,0.00,,,0.05,Wunderground v.1.15,2013-02-08 19:17:00,
2013-02-08 14:22:00,32.6,31.3,29.81,North,11,2.0,6.0,95,0.00,,,0.05,Wunderground v.1.15,2013-02-08 19:22:00,
2013-02-08 14:27:00,32.5,31.5,29.80,NNW,328,2.0,6.0,96,0.00,,,0.05,Wunderground v.1.15,2013-02-08 19:27:00,
2013-02-08 14:32:00,32.5,31.5,29.80,NNE,18,2.0,6.0,96,0.00,,,0.05,Wunderground v.1.15,2013-02-08 19:32:00,
2013-02-08 14:37:00,32.4,31.4,29.79,NNW,346,3.0,6.0,96,0.00,,,0.05,Wunderground v.1.15,2013-02-08 19:37:00,
2013-02-08 14:42:00,32.4,31.4,29.78,NNE,27,1.0,2.0,96,0.00,,,0.05,Wunderground v.1.15,2013-02-08 19:42:00,
2013-02-08 14:47:00,32.3,31.5,29.78,NNE,13,1.0,7.0,97,0.00,,,0.05,Wunderground v.1.15,2013-02-08 19:47:00,
2013-02-08 14:52:00,32.3,31.3,29.78,NNE,23,3.0,3.0,96,0.00,,,0.05,Wunderground v.1.15,2013-02-08 19:52:00,
2013-02-08 14:57:00,32.3,31.5,29.78,NNE,23,2.0,3.0,97,0.00,,,0.05,Wunderground v.1.15,2013-02-08 19:57:00,
2013-02-08 15:02:00,32.3,31.5,29.77,NNE,30,2.0,3.0,97,0.00,,,0.05,Wunderground v.1.15,2013-02-08 20:02:00,
2013-02-08 15:07:00,32.2,31.4,29.77,North,5,2.0,6.0,97,0.00,,,0.05,Wunderground v.1.15,2013-02-08 20:07:00,
2013-02-08 15:12:00,32.1,31.3,29.77,NNE,25,1.0,6.0,97,0.00,,,0.05,Wunderground v.1.15,2013-02-08 20:12:00,
2013-02-08 15:17:00,32.1,31.3,29.77,NNW,346,1.0,6.0,97,0.00,,,0.06,Wunderground v.1.15,2013-02-08 20:17:00,
2013-02-08 15:22:00,32.1,31.3,29.76,NNE,13,2.0,4.0,97,0.00,,,0.06,Wunderground v.1.15,2013-02-08 20:22:00,
2013-02-08 15:27:00,32.0,31.2,29.76,North,5,3.0,5.0,97,0.00,,,0.06,Wunderground v.1.15,2013-02-08 20:27:00,
2013-02-08 15:32:00,32.0,31.2,29.76,North,354,2.0,5.0,97,0.00,,,0.06,Wunderground v.1.15,2013-02-08 20:32:00,
2013-02-08 15:37:00,31.9,31.1,29.75,North,9,3.0,5.0,97,0.00,,,0.06,Wunderground v.1.15,2013-02-08 20:37:00,
2013-02-08 15:42:00,31.9,31.1,29.75,NNW,339,2.0,4.0,97,0.00,,,0.06,Wunderground v.1.15,2013-02-08 20:42:00,
2013-02-08 15:47:00,31.9,31.1,29.75,North,358,2.0,4.0,97,0.00,,,0.06,Wunderground v.1.15,2013-02-08 20:47:00,
2013-02-08 15:52:00,31.9,31.1,29.75,NNE,22,2.0,3.0,97,0.00,,,0.06,Wunderground v.1.15,2013-02-08 20:52:00,
2013-02-08 15:57:00,31.9,31.1,29.75,North,353,1.0,6.0,97,0.00,,,0.06,Wunderground v.1.15,2013-02-08 20:57:00,
2013-02-08 16:02:00,31.8,31.0,29.75,WNW,298,1.0,5.0,97,0.00,,,0.06,Wunderground v.1.15,2013-02-08 21:02:00,
2013-02-08 16:07:00,31.8,31.0,29.75,North,356,0.0,5.0,97,0.00,,,0.06,Wunderground v.1.15,2013-02-08 21:07:00,
2013-02-08 16:12:00,31.8,31.0,29.75,North,2,0.0,4.0,97,0.00,,,0.06,Wunderground v.1.15,2013-02-08 21:12:00,
2013-02-08 16:17:00,31.7,30.9,29.74,North,7,0.0,4.0,97,0.00,,,0.06,Wunderground v.1.15,2013-02-08 21:17:00,
2013-02-08 16:22:00,31.7,30.9,29.74,NW,323,1.0,2.0,97,0.00,,,0.06,Wunderground v.1.15,2013-02-08 21:22:00,
2013-02-08 16:27:00,31.7,30.9,29.74,North,352,3.0,5.0,97,0.00,,,0.06,Wunderground v.1.15,2013-02-08 21:27:00,
2013-02-08 16:32:00,31.7,30.9,29.74,North,7,1.0,2.0,97,0.00,,,0.06,Wunderground v.1.15,2013-02-08 21:32:00,
2013-02-08 16:37:00,31.7,31.2,29.74,NNE,14,3.0,5.0,98,0.00,,,0.06,Wunderground v.1.15,2013-02-08 21:37:00,
2013-02-08 16:43:00,31.7,31.2,29.73,NNE,15,0.0,3.0,98,0.00,,,0.06,Wunderground v.1.15,2013-02-08 21:43:00,
2013-02-08 16:48:00,31.6,31.1,29.73,NNW,331,1.0,5.0,98,0.00,,,0.06,Wunderground v.1.15,2013-02-08 21:48:00,
2013-02-08 16:53:00,31.6,31.1,29.73,North,11,1.0,2.0,98,0.00,,,0.06,Wunderground v.1.15,2013-02-08 21:53:00,
2013-02-08 16:58:00,31.6,31.1,29.73,NNE,17,1.0,6.0,98,0.00,,,0.06,Wunderground v.1.15,2013-02-08 21:58:00,
2013-02-08 17:03:00,31.6,31.1,29.72,NNW,344,2.0,4.0,98,0.00,,,0.06,Wunderground v.1.15,2013-02-08 22:03:00,
2013-02-08 17:10:00,31.6,31.1,29.72,North,3,1.0,5.0,98,0.00,,,0.06,Wunderground v.1.15,2013-02-08 22:10:00,
2013-02-08 17:16:00,31.6,31.1,29.71,NNE,16,6.0,6.0,98,0.00,,,0.06,Wunderground v.1.15,2013-02-08 22:16:00,
2013-02-08 17:21:00,31.5,31.0,29.71,North,9,5.0,7.0,98,0.00,,,0.06,Wunderground v.1.15,2013-02-08 22:21:00,
2013-02-08 17:26:00,31.5,31.0,29.71,North,6,3.0,3.0,98,0.00,,,0.06,Wunderground v.1.15,2013-02-08 22:26:00,
2013-02-08 17:31:00,31.5,31.0,29.71,NNW,331,3.0,3.0,98,0.00,,,0.06,Wunderground v.1.15,2013-02-08 22:31:00,
2013-02-08 17:37:00,31.5,31.0,29.70,NNW,335,1.0,6.0,98,0.00,,,0.06,Wunderground v.1.15,2013-02-08 22:37:00,
2013-02-08 17:42:00,31.4,30.9,29.70,North,354,1.0,2.0,98,0.00,,,0.06,Wunderground v.1.15,2013-02-08 22:42:00,
2013-02-08 17:47:00,31.3,30.8,29.70,NNE,21,5.0,6.0,98,0.00,,,0.06,Wunderground v.1.15,2013-02-08 22:47:00,
2013-02-08 17:52:00,31.3,30.8,29.70,North,8,2.0,2.0,98,0.00,,,0.06,Wunderground v.1.15,2013-02-08 22:52:00,
2013-02-08 17:57:00,31.2,30.7,29.70,North,9,2.0,7.0,98,0.00,,,0.06,Wunderground v.1.15,2013-02-08 22:57:00,
2013-02-08 18:02:00,31.2,30.7,29.70,North,360,1.0,4.0,98,0.00,,,0.06,Wunderground v.1.15,2013-02-08 23:02:00,
2013-02-08 18:07:00,31.2,30.7,29.70,North,4,0.0,5.0,98,0.00,,,0.06,Wunderground v.1.15,2013-02-08 23:07:00,
2013-02-08 18:12:00,31.1,30.6,29.70,NNE,19,1.0,5.0,98,0.00,,,0.06,Wunderground v.1.15,2013-02-08 23:12:00,
2013-02-08 18:17:00,31.1,30.6,29.69,NNW,348,2.0,5.0,98,0.00,,,0.06,Wunderground v.1.15,2013-02-08 23:17:00,
2013-02-08 18:22:00,31.0,30.5,29.69,NW,320,5.0,5.0,98,0.00,,,0.06,Wunderground v.1.15,2013-02-08 23:22:00,
2013-02-08 18:27:00,31.0,30.5,29.69,North,7,0.0,5.0,98,0.00,,,0.06,Wunderground v.1.15,2013-02-08 23:27:00,
2013-02-08 18:32:00,30.9,30.4,29.69,NE,40,5.0,8.0,98,0.00,,,0.06,Wunderground v.1.15,2013-02-08 23:32:00,
2013-02-08 18:37:00,30.8,30.0,29.69,NE,34,2.0,8.0,97,0.00,,,0.06,Wunderground v.1.15,2013-02-08 23:37:00,
2013-02-08 18:42:00,30.8,30.0,29.69,NNE,27,0.0,4.0,97,0.00,,,0.06,Wunderground v.1.15,2013-02-08 23:42:00,
2013-02-08 18:47:00,30.7,30.0,29.68,NNE,16,2.0,4.0,97,0.00,,,0.06,Wunderground v.1.15,2013-02-08 23:47:00,
2013-02-08 18:52:00,30.6,29.9,29.68,North,358,2.0,5.0,97,0.00,,,0.06,Wunderground v.1.15,2013-02-08 23:52:00,
2013-02-08 18:57:00,30.6,29.9,29.68,NE,42,2.0,5.0,97,0.00,,,0.06,Wunderground v.1.15,2013-02-08 23:57:00,
2013-02-08 19:02:00,30.5,29.8,29.68,North,357,3.0,5.0,97,0.00,,,0.06,Wunderground v.1.15,2013-02-09 00:02:00,
2013-02-08 19:07:00,30.4,29.7,29.68,North,11,2.0,6.0,97,0.00,,,0.06,Wunderground v.1.15,2013-02-09 00:07:00,
2013-02-08 19:12:00,30.3,29.6,29.68,North,5,3.0,6.0,97,0.00,,,0.06,Wunderground v.1.15,2013-02-09 00:12:00,
2013-02-08 19:17:00,30.2,29.5,29.68,North,10,2.0,6.0,97,0.00,,,0.06,Wunderground v.1.15,2013-02-09 00:17:00,
2013-02-08 19:22:00,30.1,29.4,29.68,North,9,2.0,3.0,97,0.00,,,0.06,Wunderground v.1.15,2013-02-09 00:22:00,
2013-02-08 19:27:00,30.1,29.4,29.68,NNW,348,3.0,7.0,97,0.00,,,0.06,Wunderground v.1.15,2013-02-09 00:27:00,
2013-02-08 19:32:00,30.1,29.4,29.68,NNE,27,2.0,6.0,97,0.00,,,0.06,Wunderground v.1.15,2013-02-09 00:32:00,
2013-02-08 19:38:00,29.9,29.2,29.67,North,358,0.0,6.0,97,0.00,,,0.06,Wunderground v.1.15,2013-02-09 00:38:00,
2013-02-08 19:46:00,29.8,29.1,29.67,North,9,1.0,5.0,97,0.00,,,0.06,Wunderground v.1.15,2013-02-09 00:46:00,
2013-02-08 19:51:00,29.8,29.1,29.67,WNW,284,3.0,5.0,97,0.00,,,0.06,Wunderground v.1.15,2013-02-09 00:51:00,
2013-02-08 19:56:00,29.7,29.0,29.67,North,4,2.0,4.0,97,0.00,,,0.06,Wunderground v.1.15,2013-02-09 00:56:00,
2013-02-08 20:01:00,29.7,29.0,29.67,NNW,342,2.0,2.0,97,0.00,,,0.06,Wunderground v.1.15,2013-02-09 01:01:00,
2013-02-08 20:06:00,29.6,28.9,29.68,North,359,2.0,3.0,97,0.00,,,0.06,Wunderground v.1.15,2013-02-09 01:06:00,
2013-02-08 20:11:00,29.6,28.9,29.67,North,350,3.0,5.0,97,0.00,,,0.06,Wunderground v.1.15,2013-02-09 01:11:00,
2013-02-08 20:17:00,29.5,28.8,29.66,NNE,20,2.0,5.0,97,0.00,,,0.06,Wunderground v.1.15,2013-02-09 01:17:00,
2013-02-08 20:22:00,29.4,28.7,29.66,NNE,15,1.0,3.0,97,0.00,,,0.06,Wunderground v.1.15,2013-02-09 01:22:00,
2013-02-08 20:27:00,29.4,28.7,29.66,North,351,2.0,3.0,97,0.00,,,0.06,Wunderground v.1.15,2013-02-09 01:27:00,
2013-02-08 20:32:00,29.3,28.6,29.66,North,8,2.0,2.0,97,0.00,,,0.06,Wunderground v.1.15,2013-02-09 01:32:00,
2013-02-08 20:37:00,29.3,28.6,29.66,NW,321,2.0,3.0,97,0.00,,,0.06,Wunderground v.1.15,2013-02-09 01:37:00,
2013-02-08 20:42:00,29.3,28.6,29.66,NNW,338,0.0,4.0,97,0.00,,,0.06,Wunderground v.1.15,2013-02-09 01:42:00,
2013-02-08 20:47:00,29.3,28.6,29.66,North,3,1.0,4.0,97,0.00,,,0.06,Wunderground v.1.15,2013-02-09 01:47:00,
2013-02-08 20:52:00,29.3,28.6,29.67,North,357,1.0,2.0,97,0.00,,,0.06,Wunderground v.1.15,2013-02-09 01:52:00,
2013-02-08 20:57:00,29.3,28.6,29.67,North,360,2.0,4.0,97,0.00,,,0.06,Wunderground v.1.15,2013-02-09 01:57:00,
2013-02-08 21:02:00,29.3,28.6,29.66,NW,319,3.0,7.0,97,0.00,,,0.06,Wunderground v.1.15,2013-02-09 02:02:00,
2013-02-08 21:07:00,29.3,28.6,29.66,NNE,19,1.0,7.0,97,0.00,,,0.06,Wunderground v.1.15,2013-02-09 02:07:00,
2013-02-08 21:12:00,29.3,28.6,29.66,NNE,26,2.0,4.0,97,0.00,,,0.06,Wunderground v.1.15,2013-02-09 02:12:00,
2013-02-08 21:17:00,29.2,28.5,29.67,NNW,327,2.0,4.0,97,0.00,,,0.06,Wunderground v.1.15,2013-02-09 02:17:00,
2013-02-08 21:23:00,29.1,28.4,29.67,NNW,346,2.0,4.0,97,0.00,,,0.06,Wunderground v.1.15,2013-02-09 02:23:00,
2013-02-08 21:28:00,29.1,28.4,29.67,North,350,4.0,4.0,97,0.00,,,0.06,Wunderground v.1.15,2013-02-09 02:28:00,
2013-02-08 21:33:00,29.0,28.3,29.68,NNW,332,2.0,5.0,97,0.00,,,0.06,Wunderground v.1.15,2013-02-09 02:33:00,
2013-02-08 21:38:00,28.8,28.1,29.68,NNW,347,2.0,6.0,97,0.00,,,0.06,Wunderground v.1.15,2013-02-09 02:38:00,
2013-02-08 21:43:00,28.8,28.1,29.68,NNW,333,3.0,3.0,97,0.00,,,0.06,Wunderground v.1.15,2013-02-09 02:43:00,
2013-02-08 21:48:00,28.7,28.0,29.69,NE,42,3.0,5.0,97,0.00,,,0.06,Wunderground v.1.15,2013-02-09 02:48:00,
2013-02-08 21:53:00,28.6,27.9,29.69,NNW,340,3.0,3.0,97,0.00,,,0.06,Wunderground v.1.15,2013-02-09 02:53:00,
2013-02-08 21:58:00,28.5,27.8,29.69,NNW,340,1.0,3.0,97,0.00,,,0.06,Wunderground v.1.15,2013-02-09 02:58:00,
2013-02-08 22:03:00,28.5,27.8,29.70,NNW,334,0.0,4.0,97,0.00,,,0.06,Wunderground v.1.15,2013-02-09 03:03:00,
2013-02-08 22:08:00,28.5,27.8,29.70,NNW,330,1.0,4.0,97,0.00,,,0.06,Wunderground v.1.15,2013-02-09 03:08:00,
2013-02-08 22:13:00,28.5,27.8,29.71,WNW,302,1.0,2.0,97,0.00,,,0.06,Wunderground v.1.15,2013-02-09 03:13:00,
2013-02-08 22:18:00,28.5,27.8,29.71,North,352,1.0,5.0,97,0.00,,,0.06,Wunderground v.1.15,2013-02-09 03:18:00,
2013-02-08 22:23:00,28.5,27.8,29.72,NNW,328,1.0,3.0,97,0.00,,,0.06,Wunderground v.1.15,2013-02-09 03:23:00,
2013-02-08 22:31:00,28.5,27.8,29.72,NNW,346,1.0,1.0,97,0.00,,,0.06,Wunderground v.1.15,2013-02-09 03:31:00,
2013-02-08 22:36:00,28.4,27.7,29.72,NNW,339,1.0,4.0,97,0.00,,,0.06,Wunderground v.1.15,2013-02-09 03:36:00,
2013-02-08 22:41:00,28.3,27.6,29.73,NW,306,2.0,2.0,97,0.00,,,0.06,Wunderground v.1.15,2013-02-09 03:41:00,
2013-02-08 22:46:00,28.1,27.4,29.73,North,351,0.0,3.0,97,0.00,,,0.06,Wunderground v.1.15,2013-02-09 03:46:00,
2013-02-08 22:51:00,27.9,27.2,29.73,North,10,1.0,2.0,97,0.00,,,0.06,Wunderground v.1.15,2013-02-09 03:51:00,
2013-02-08 22:56:00,27.8,27.1,29.74,WNW,301,3.0,3.0,97,0.00,,,0.06,Wunderground v.1.15,2013-02-09 03:56:00,
2013-02-08 23:03:00,27.5,26.8,29.74,NW,320,4.0,4.0,97,0.00,,,0.06,Wunderground v.1.15,2013-02-09 04:03:00,
2013-02-08 23:10:00,27.2,26.2,29.75,NNW,346,2.0,6.0,96,0.00,,,0.06,Wunderground v.1.15,2013-02-09 04:10:00,
2013-02-08 23:16:00,27.0,26.3,29.76,North,349,5.0,5.0,97,0.00,,,0.06,Wunderground v.1.15,2013-02-09 04:16:00,
2013-02-08 23:21:00,26.9,25.9,29.76,NNW,336,1.0,5.0,96,0.00,,,0.06,Wunderground v.1.15,2013-02-09 04:21:00,
2013-02-08 23:26:00,26.8,26.1,29.76,North,356,0.0,2.0,97,0.00,,,0.06,Wunderground v.1.15,2013-02-09 04:26:00,
2013-02-08 23:31:00,26.7,26.0,29.76,NNW,346,1.0,4.0,97,0.00,,,0.06,Wunderground v.1.15,2013-02-09 04:31:00,
2013-02-08 23:36:00,26.6,25.9,29.76,NNW,328,2.0,2.0,97,0.00,,,0.06,Wunderground v.1.15,2013-02-09 04:36:00,
2013-02-08 23:41:00,26.6,25.9,29.76,NNW,331,2.0,4.0,97,0.00,,,0.06,Wunderground v.1.15,2013-02-09 04:41:00,
2013-02-08 23:46:00,26.5,25.8,29.76,NW,317,3.0,5.0,97,0.00,,,0.06,Wunderground v.1.15,2013-02-09 04:46:00,
2013-02-08 23:51:00,26.5,25.8,29.77,North,354,2.0,5.0,97,0.00,,,0.06,Wunderground v.1.15,2013-02-09 04:51:00,
2013-02-08 23:56:00,26.5,25.8,29.77,NW,308,1.0,2.0,97,0.00,,,0.06,Wunderground v.1.15,2013-02-09 04:56:00,